Etusivu
METAR-TAF:

METAR-TAF

Lentoasemat :

Stewart, Brittiläinen Kolumbia, Kanada

Leveyspiiri: 55-56N, Pituuspiiri: 129-59W, korkeus merenpinnasta: 7 m

Tämänhetkinen sää

Tämä raportti tehtiin 1 tunti ja 3 minuuttia sitten, kello 20.00 UTC
Tuuli 4 kn etelästä, vaihdellen etelän ja lännen/luoteen välillä
Lämpötila 14°C
Kosteus 67%
Ilmanpaine 1014 hPa
Näkyvyys: 24.1 km
Muutamia pilviä 2000 ft:n korkeudessa
Hajonneita pilviä 4500 ft:n korkeudessa
Hajonneita pilviä 8000 ft:n korkeudessa
Hajonneita pilviä 25000 ft:n korkeudessa

METAR: CZST 202000Z 19004KT 170V300 15SM FEW020 BKN045 BKN080 BKN250 14/08 A2995 RMK SC1SC4AC1CI1 SLP142

Aika: 14:03 (21:03 UTC)


TAF: puuttuu

Säähavainnot ja -ennusteet yli 4000 lentoasemalta (METAR- ja TAF-raportit).

Käytössä olevat sääasemat on merkitty karttaan keltaisilla ja punaisilla pisteillä.

Aseta hiiri pisteen päälle nähdäksesi sääaseman nimen.

Klikkaa sitten nähdäksesi säähavainnot ja -ennusteet.

Kartan vaihtaminen: klikkaa mustalla rastilla varustettuja vihreitä pisteitä, niin voit zoomata sisään; viivalla varustettua vihreää pistettä, niin voit zoomata ulos tai vihreitä nuolia, niin pääset viereisille kartoille.


METAR-TAF: